sensor_id;sensor_type;location;lat;lon;timestamp;P1;durP1;ratioP1;P2;durP2;ratioP2
27706;SDS011;36332;51.384;0.040;2023-07-16T00:00:24;18.67;;;3.20;;
27706;SDS011;36332;51.384;0.040;2023-07-16T00:02:54;18.75;;;4.20;;
27706;SDS011;36332;51.384;0.040;2023-07-16T00:05:22;25.45;;;3.70;;
27706;SDS011;36332;51.384;0.040;2023-07-16T00:07:50;23.65;;;4.40;;
27706;SDS011;36332;51.384;0.040;2023-07-16T00:10:18;25.67;;;4.97;;
27706;SDS011;36332;51.384;0.040;2023-07-16T00:12:46;26.52;;;3.88;;
27706;SDS011;36332;51.384;0.040;2023-07-16T00:15:14;20.80;;;4.50;;
27706;SDS011;36332;51.384;0.040;2023-07-16T00:17:42;26.00;;;4.95;;
27706;SDS011;36332;51.384;0.040;2023-07-16T00:20:10;19.95;;;3.78;;
27706;SDS011;36332;51.384;0.040;2023-07-16T00:22:38;19.83;;;4.53;;
27706;SDS011;36332;51.384;0.040;2023-07-16T00:25:06;20.10;;;3.75;;
27706;SDS011;36332;51.384;0.040;2023-07-16T00:27:34;21.73;;;4.38;;
27706;SDS011;36332;51.384;0.040;2023-07-16T00:30:02;29.65;;;4.53;;
27706;SDS011;36332;51.384;0.040;2023-07-16T00:32:31;32.72;;;4.70;;
27706;SDS011;36332;51.384;0.040;2023-07-16T00:34:59;20.52;;;3.92;;
27706;SDS011;36332;51.384;0.040;2023-07-16T00:37:27;21.95;;;3.97;;
27706;SDS011;36332;51.384;0.040;2023-07-16T00:39:55;26.15;;;3.92;;
27706;SDS011;36332;51.384;0.040;2023-07-16T00:42:23;13.80;;;3.53;;
27706;SDS011;36332;51.384;0.040;2023-07-16T00:44:51;13.23;;;3.58;;
27706;SDS011;36332;51.384;0.040;2023-07-16T00:47:19;23.30;;;4.13;;
27706;SDS011;36332;51.384;0.040;2023-07-16T00:49:47;20.27;;;3.67;;
27706;SDS011;36332;51.384;0.040;2023-07-16T00:52:16;28.40;;;4.70;;
27706;SDS011;36332;51.384;0.040;2023-07-16T00:54:46;18.50;;;5.22;;
27706;SDS011;36332;51.384;0.040;2023-07-16T00:57:14;21.10;;;3.70;;
27706;SDS011;36332;51.384;0.040;2023-07-16T00:59:42;34.95;;;4.45;;
27706;SDS011;36332;51.384;0.040;2023-07-16T01:02:10;24.90;;;4.65;;
27706;SDS011;36332;51.384;0.040;2023-07-16T01:04:39;14.45;;;3.83;;
27706;SDS011;36332;51.384;0.040;2023-07-16T01:07:06;23.20;;;4.30;;
27706;SDS011;36332;51.384;0.040;2023-07-16T01:09:39;19.60;;;3.80;;
27706;SDS011;36332;51.384;0.040;2023-07-16T01:12:09;25.00;;;3.65;;
27706;SDS011;36332;51.384;0.040;2023-07-16T01:14:38;16.08;;;4.05;;
27706;SDS011;36332;51.384;0.040;2023-07-16T01:17:07;18.60;;;4.05;;
27706;SDS011;36332;51.384;0.040;2023-07-16T01:19:35;24.60;;;6.05;;
27706;SDS011;36332;51.384;0.040;2023-07-16T01:22:08;23.55;;;4.20;;
27706;SDS011;36332;51.384;0.040;2023-07-16T01:30:19;21.98;;;3.92;;
27706;SDS011;36332;51.384;0.040;2023-07-16T01:32:50;18.38;;;4.00;;
27706;SDS011;36332;51.384;0.040;2023-07-16T01:35:20;19.65;;;3.65;;
27706;SDS011;36332;51.384;0.040;2023-07-16T01:37:48;18.42;;;3.92;;
27706;SDS011;36332;51.384;0.040;2023-07-16T01:40:16;22.13;;;4.30;;
27706;SDS011;36332;51.384;0.040;2023-07-16T01:42:43;20.58;;;4.47;;
27706;SDS011;36332;51.384;0.040;2023-07-16T01:45:11;32.70;;;7.13;;
27706;SDS011;36332;51.384;0.040;2023-07-16T01:50:28;23.83;;;4.38;;
27706;SDS011;36332;51.384;0.040;2023-07-16T01:52:56;27.73;;;4.60;;
27706;SDS011;36332;51.384;0.040;2023-07-16T01:55:25;16.67;;;3.78;;
27706;SDS011;36332;51.384;0.040;2023-07-16T01:57:53;23.70;;;4.90;;
27706;SDS011;36332;51.384;0.040;2023-07-16T02:00:20;25.50;;;4.57;;
27706;SDS011;36332;51.384;0.040;2023-07-16T02:02:50;22.67;;;4.55;;
27706;SDS011;36332;51.384;0.040;2023-07-16T02:05:18;25.77;;;5.05;;
27706;SDS011;36332;51.384;0.040;2023-07-16T02:07:45;18.98;;;4.72;;
27706;SDS011;36332;51.384;0.040;2023-07-16T02:10:12;22.35;;;4.03;;
27706;SDS011;36332;51.384;0.040;2023-07-16T02:12:40;25.15;;;4.30;;
27706;SDS011;36332;51.384;0.040;2023-07-16T02:15:08;38.45;;;5.55;;
27706;SDS011;36332;51.384;0.040;2023-07-16T02:17:36;26.77;;;4.93;;
27706;SDS011;36332;51.384;0.040;2023-07-16T02:20:04;20.20;;;4.15;;
27706;SDS011;36332;51.384;0.040;2023-07-16T02:22:33;21.38;;;4.40;;
27706;SDS011;36332;51.384;0.040;2023-07-16T02:25:02;22.65;;;4.20;;
27706;SDS011;36332;51.384;0.040;2023-07-16T02:27:31;27.30;;;5.80;;
27706;SDS011;36332;51.384;0.040;2023-07-16T02:29:58;33.22;;;5.05;;
27706;SDS011;36332;51.384;0.040;2023-07-16T02:32:26;35.80;;;6.60;;
27706;SDS011;36332;51.384;0.040;2023-07-16T02:34:53;27.30;;;4.70;;
27706;SDS011;36332;51.384;0.040;2023-07-16T02:37:21;26.98;;;5.13;;
27706;SDS011;36332;51.384;0.040;2023-07-16T02:39:49;23.85;;;5.75;;
27706;SDS011;36332;51.384;0.040;2023-07-16T02:42:17;31.83;;;5.30;;
27706;SDS011;36332;51.384;0.040;2023-07-16T02:44:45;36.45;;;5.60;;
27706;SDS011;36332;51.384;0.040;2023-07-16T02:47:12;23.77;;;4.57;;
27706;SDS011;36332;51.384;0.040;2023-07-16T02:49:40;28.25;;;4.85;;
27706;SDS011;36332;51.384;0.040;2023-07-16T02:52:08;23.10;;;4.55;;
27706;SDS011;36332;51.384;0.040;2023-07-16T02:54:36;33.90;;;5.97;;
27706;SDS011;36332;51.384;0.040;2023-07-16T02:57:05;33.40;;;4.93;;
27706;SDS011;36332;51.384;0.040;2023-07-16T02:59:32;25.02;;;4.78;;
27706;SDS011;36332;51.384;0.040;2023-07-16T03:02:00;46.53;;;5.20;;
27706;SDS011;36332;51.384;0.040;2023-07-16T03:04:28;21.17;;;4.10;;
27706;SDS011;36332;51.384;0.040;2023-07-16T03:06:56;24.23;;;4.95;;
27706;SDS011;36332;51.384;0.040;2023-07-16T03:09:24;24.38;;;4.38;;
27706;SDS011;36332;51.384;0.040;2023-07-16T03:11:51;20.02;;;3.72;;
27706;SDS011;36332;51.384;0.040;2023-07-16T03:14:19;33.60;;;5.47;;
27706;SDS011;36332;51.384;0.040;2023-07-16T03:16:47;26.55;;;4.95;;
27706;SDS011;36332;51.384;0.040;2023-07-16T03:19:15;36.92;;;6.25;;
27706;SDS011;36332;51.384;0.040;2023-07-16T03:21:42;25.25;;;4.50;;
27706;SDS011;36332;51.384;0.040;2023-07-16T03:24:10;25.52;;;4.40;;
27706;SDS011;36332;51.384;0.040;2023-07-16T03:26:38;22.13;;;4.40;;
27706;SDS011;36332;51.384;0.040;2023-07-16T03:29:06;31.25;;;4.95;;
27706;SDS011;36332;51.384;0.040;2023-07-16T03:31:34;41.92;;;5.05;;
27706;SDS011;36332;51.384;0.040;2023-07-16T03:34:02;38.28;;;5.10;;
27706;SDS011;36332;51.384;0.040;2023-07-16T03:36:31;34.60;;;5.30;;
27706;SDS011;36332;51.384;0.040;2023-07-16T03:38:58;24.65;;;4.25;;
27706;SDS011;36332;51.384;0.040;2023-07-16T03:41:26;25.67;;;5.85;;
27706;SDS011;36332;51.384;0.040;2023-07-16T03:43:54;44.63;;;7.00;;
27706;SDS011;36332;51.384;0.040;2023-07-16T03:46:22;27.08;;;5.05;;
27706;SDS011;36332;51.384;0.040;2023-07-16T03:48:50;35.60;;;6.38;;
27706;SDS011;36332;51.384;0.040;2023-07-16T03:51:19;35.63;;;4.95;;
27706;SDS011;36332;51.384;0.040;2023-07-16T03:53:46;30.38;;;5.18;;
27706;SDS011;36332;51.384;0.040;2023-07-16T03:56:15;31.55;;;6.63;;
27706;SDS011;36332;51.384;0.040;2023-07-16T03:58:43;27.42;;;5.47;;
27706;SDS011;36332;51.384;0.040;2023-07-16T04:01:11;27.60;;;4.25;;
27706;SDS011;36332;51.384;0.040;2023-07-16T04:03:38;36.47;;;5.15;;
27706;SDS011;36332;51.384;0.040;2023-07-16T04:06:08;29.27;;;5.43;;
27706;SDS011;36332;51.384;0.040;2023-07-16T04:08:37;26.80;;;6.25;;
27706;SDS011;36332;51.384;0.040;2023-07-16T04:11:05;24.33;;;4.72;;
27706;SDS011;36332;51.384;0.040;2023-07-16T04:13:33;25.83;;;5.07;;
27706;SDS011;36332;51.384;0.040;2023-07-16T04:16:01;33.78;;;5.53;;
27706;SDS011;36332;51.384;0.040;2023-07-16T04:18:29;28.60;;;5.90;;
27706;SDS011;36332;51.384;0.040;2023-07-16T04:20:56;32.13;;;5.97;;
27706;SDS011;36332;51.384;0.040;2023-07-16T04:23:24;23.58;;;5.50;;
27706;SDS011;36332;51.384;0.040;2023-07-16T04:25:52;23.70;;;4.38;;
27706;SDS011;36332;51.384;0.040;2023-07-16T04:28:22;18.30;;;4.22;;
27706;SDS011;36332;51.384;0.040;2023-07-16T04:30:50;29.30;;;4.88;;
27706;SDS011;36332;51.384;0.040;2023-07-16T04:33:17;33.15;;;6.28;;
27706;SDS011;36332;51.384;0.040;2023-07-16T04:35:46;20.40;;;4.38;;
27706;SDS011;36332;51.384;0.040;2023-07-16T04:38:14;29.42;;;5.22;;
27706;SDS011;36332;51.384;0.040;2023-07-16T04:40:42;27.20;;;4.63;;
27706;SDS011;36332;51.384;0.040;2023-07-16T04:43:10;22.08;;;4.10;;
27706;SDS011;36332;51.384;0.040;2023-07-16T04:45:37;27.33;;;5.07;;
27706;SDS011;36332;51.384;0.040;2023-07-16T04:48:07;26.15;;;4.45;;
27706;SDS011;36332;51.384;0.040;2023-07-16T04:50:34;29.38;;;4.78;;
27706;SDS011;36332;51.384;0.040;2023-07-16T04:53:02;36.60;;;6.82;;
27706;SDS011;36332;51.384;0.040;2023-07-16T04:55:34;26.20;;;5.00;;
27706;SDS011;36332;51.384;0.040;2023-07-16T04:58:03;28.38;;;5.20;;
27706;SDS011;36332;51.384;0.040;2023-07-16T05:00:32;29.58;;;5.07;;
27706;SDS011;36332;51.384;0.040;2023-07-16T05:03:00;36.85;;;6.53;;
27706;SDS011;36332;51.384;0.040;2023-07-16T05:05:28;20.25;;;3.88;;
27706;SDS011;36332;51.384;0.040;2023-07-16T05:07:56;20.13;;;5.20;;
27706;SDS011;36332;51.384;0.040;2023-07-16T05:10:23;20.55;;;5.30;;
27706;SDS011;36332;51.384;0.040;2023-07-16T05:12:51;21.98;;;4.22;;
27706;SDS011;36332;51.384;0.040;2023-07-16T05:15:19;25.30;;;4.40;;
27706;SDS011;36332;51.384;0.040;2023-07-16T05:17:47;22.77;;;4.65;;
27706;SDS011;36332;51.384;0.040;2023-07-16T05:20:16;21.90;;;4.30;;
27706;SDS011;36332;51.384;0.040;2023-07-16T05:22:45;30.10;;;4.60;;
27706;SDS011;36332;51.384;0.040;2023-07-16T05:25:13;29.33;;;5.15;;
27706;SDS011;36332;51.384;0.040;2023-07-16T05:27:41;34.05;;;4.80;;
27706;SDS011;36332;51.384;0.040;2023-07-16T05:30:09;29.92;;;4.80;;
27706;SDS011;36332;51.384;0.040;2023-07-16T05:32:37;26.15;;;3.95;;
27706;SDS011;36332;51.384;0.040;2023-07-16T05:35:04;27.63;;;4.25;;
27706;SDS011;36332;51.384;0.040;2023-07-16T05:37:32;16.42;;;3.78;;
27706;SDS011;36332;51.384;0.040;2023-07-16T05:40:00;21.35;;;4.07;;
27706;SDS011;36332;51.384;0.040;2023-07-16T05:42:28;21.90;;;4.78;;
27706;SDS011;36332;51.384;0.040;2023-07-16T05:44:55;36.33;;;4.32;;
27706;SDS011;36332;51.384;0.040;2023-07-16T05:47:23;18.08;;;3.90;;
27706;SDS011;36332;51.384;0.040;2023-07-16T05:49:51;31.65;;;3.92;;
27706;SDS011;36332;51.384;0.040;2023-07-16T05:52:19;21.35;;;4.63;;
27706;SDS011;36332;51.384;0.040;2023-07-16T05:54:47;17.38;;;3.70;;
27706;SDS011;36332;51.384;0.040;2023-07-16T05:57:14;23.23;;;3.55;;
27706;SDS011;36332;51.384;0.040;2023-07-16T05:59:42;24.05;;;4.57;;
27706;SDS011;36332;51.384;0.040;2023-07-16T06:02:10;20.40;;;4.25;;
27706;SDS011;36332;51.384;0.040;2023-07-16T06:04:37;19.55;;;3.95;;
27706;SDS011;36332;51.384;0.040;2023-07-16T06:07:05;24.27;;;3.63;;
27706;SDS011;36332;51.384;0.040;2023-07-16T06:09:33;20.00;;;3.70;;
27706;SDS011;36332;51.384;0.040;2023-07-16T06:12:01;17.85;;;3.53;;
27706;SDS011;36332;51.384;0.040;2023-07-16T06:14:29;24.55;;;3.30;;
27706;SDS011;36332;51.384;0.040;2023-07-16T06:16:56;21.85;;;4.43;;
27706;SDS011;36332;51.384;0.040;2023-07-16T06:19:24;29.02;;;5.53;;
27706;SDS011;36332;51.384;0.040;2023-07-16T06:21:51;25.85;;;4.50;;
27706;SDS011;36332;51.384;0.040;2023-07-16T06:24:19;15.70;;;3.25;;
27706;SDS011;36332;51.384;0.040;2023-07-16T06:26:46;16.40;;;3.55;;
27706;SDS011;36332;51.384;0.040;2023-07-16T06:29:14;18.48;;;3.45;;
27706;SDS011;36332;51.384;0.040;2023-07-16T06:31:42;19.40;;;3.67;;
27706;SDS011;36332;51.384;0.040;2023-07-16T06:34:12;17.02;;;3.25;;
27706;SDS011;36332;51.384;0.040;2023-07-16T06:36:39;21.15;;;3.33;;
27706;SDS011;36332;51.384;0.040;2023-07-16T06:39:08;27.13;;;3.67;;
27706;SDS011;36332;51.384;0.040;2023-07-16T06:41:36;17.00;;;3.30;;
27706;SDS011;36332;51.384;0.040;2023-07-16T06:44:07;19.33;;;3.30;;
27706;SDS011;36332;51.384;0.040;2023-07-16T06:46:35;12.75;;;3.60;;
27706;SDS011;36332;51.384;0.040;2023-07-16T06:49:04;19.85;;;3.75;;
27706;SDS011;36332;51.384;0.040;2023-07-16T06:51:32;16.00;;;3.03;;
27706;SDS011;36332;51.384;0.040;2023-07-16T06:54:00;19.13;;;3.60;;
27706;SDS011;36332;51.384;0.040;2023-07-16T06:56:27;29.10;;;5.03;;
27706;SDS011;36332;51.384;0.040;2023-07-16T06:58:55;19.65;;;3.83;;
27706;SDS011;36332;51.384;0.040;2023-07-16T07:01:23;25.83;;;3.75;;
27706;SDS011;36332;51.384;0.040;2023-07-16T07:03:51;23.17;;;3.88;;
27706;SDS011;36332;51.384;0.040;2023-07-16T07:06:18;22.77;;;3.53;;
27706;SDS011;36332;51.384;0.040;2023-07-16T07:08:47;19.48;;;3.85;;
27706;SDS011;36332;51.384;0.040;2023-07-16T07:11:15;23.50;;;4.00;;
27706;SDS011;36332;51.384;0.040;2023-07-16T07:13:42;14.85;;;3.53;;
27706;SDS011;36332;51.384;0.040;2023-07-16T07:16:10;18.88;;;2.97;;
27706;SDS011;36332;51.384;0.040;2023-07-16T07:18:37;13.77;;;2.80;;
27706;SDS011;36332;51.384;0.040;2023-07-16T07:21:05;20.65;;;3.30;;
27706;SDS011;36332;51.384;0.040;2023-07-16T07:23:33;18.30;;;3.47;;
27706;SDS011;36332;51.384;0.040;2023-07-16T07:26:00;14.65;;;3.50;;
27706;SDS011;36332;51.384;0.040;2023-07-16T07:28:28;16.40;;;3.10;;
27706;SDS011;36332;51.384;0.040;2023-07-16T07:30:55;15.43;;;3.10;;
27706;SDS011;36332;51.384;0.040;2023-07-16T07:33:23;33.80;;;4.32;;
27706;SDS011;36332;51.384;0.040;2023-07-16T07:35:55;12.13;;;2.28;;
27706;SDS011;36332;51.384;0.040;2023-07-16T07:38:23;19.13;;;2.78;;
27706;SDS011;36332;51.384;0.040;2023-07-16T07:40:51;14.45;;;2.40;;
27706;SDS011;36332;51.384;0.040;2023-07-16T07:43:19;14.50;;;2.85;;
27706;SDS011;36332;51.384;0.040;2023-07-16T07:45:46;13.73;;;2.85;;
27706;SDS011;36332;51.384;0.040;2023-07-16T07:48:14;14.48;;;3.33;;
27706;SDS011;36332;51.384;0.040;2023-07-16T07:50:42;12.15;;;2.92;;
27706;SDS011;36332;51.384;0.040;2023-07-16T07:53:09;21.30;;;3.90;;
27706;SDS011;36332;51.384;0.040;2023-07-16T07:55:37;12.93;;;2.95;;
27706;SDS011;36332;51.384;0.040;2023-07-16T07:58:05;13.55;;;2.60;;
27706;SDS011;36332;51.384;0.040;2023-07-16T08:00:33;25.42;;;3.80;;
27706;SDS011;36332;51.384;0.040;2023-07-16T08:03:01;15.65;;;3.80;;
27706;SDS011;36332;51.384;0.040;2023-07-16T08:05:29;9.63;;;2.78;;
27706;SDS011;36332;51.384;0.040;2023-07-16T08:07:58;14.10;;;2.25;;
27706;SDS011;36332;51.384;0.040;2023-07-16T08:10:25;11.73;;;3.50;;
27706;SDS011;36332;51.384;0.040;2023-07-16T08:12:53;7.00;;;2.50;;
27706;SDS011;36332;51.384;0.040;2023-07-16T08:15:21;13.40;;;2.90;;
27706;SDS011;36332;51.384;0.040;2023-07-16T08:17:48;14.60;;;2.42;;
27706;SDS011;36332;51.384;0.040;2023-07-16T08:20:16;12.52;;;2.50;;
27706;SDS011;36332;51.384;0.040;2023-07-16T08:22:44;15.40;;;3.50;;
27706;SDS011;36332;51.384;0.040;2023-07-16T08:25:12;16.10;;;2.92;;
27706;SDS011;36332;51.384;0.040;2023-07-16T08:27:40;14.65;;;2.55;;
27706;SDS011;36332;51.384;0.040;2023-07-16T08:30:08;18.23;;;3.13;;
27706;SDS011;36332;51.384;0.040;2023-07-16T08:32:35;13.60;;;2.60;;
27706;SDS011;36332;51.384;0.040;2023-07-16T08:35:03;9.88;;;2.40;;
27706;SDS011;36332;51.384;0.040;2023-07-16T08:37:31;14.50;;;2.75;;
27706;SDS011;36332;51.384;0.040;2023-07-16T08:39:59;17.48;;;2.58;;
27706;SDS011;36332;51.384;0.040;2023-07-16T08:42:27;8.15;;;2.17;;
27706;SDS011;36332;51.384;0.040;2023-07-16T08:44:55;10.88;;;2.58;;
27706;SDS011;36332;51.384;0.040;2023-07-16T08:47:23;9.98;;;2.20;;
27706;SDS011;36332;51.384;0.040;2023-07-16T08:49:55;16.67;;;2.58;;
27706;SDS011;36332;51.384;0.040;2023-07-16T08:52:24;10.57;;;3.35;;
27706;SDS011;36332;51.384;0.040;2023-07-16T08:54:54;11.57;;;2.78;;
27706;SDS011;36332;51.384;0.040;2023-07-16T08:57:22;15.90;;;2.78;;
27706;SDS011;36332;51.384;0.040;2023-07-16T08:59:51;13.60;;;2.33;;
27706;SDS011;36332;51.384;0.040;2023-07-16T09:02:19;10.85;;;2.78;;
27706;SDS011;36332;51.384;0.040;2023-07-16T09:04:47;7.03;;;2.10;;
27706;SDS011;36332;51.384;0.040;2023-07-16T09:07:16;15.30;;;2.50;;
27706;SDS011;36332;51.384;0.040;2023-07-16T09:09:43;12.77;;;2.58;;
27706;SDS011;36332;51.384;0.040;2023-07-16T09:12:24;14.55;;;3.13;;
27706;SDS011;36332;51.384;0.040;2023-07-16T09:14:53;8.90;;;2.00;;
27706;SDS011;36332;51.384;0.040;2023-07-16T09:17:22;8.73;;;1.77;;
27706;SDS011;36332;51.384;0.040;2023-07-16T09:19:53;10.57;;;2.13;;
27706;SDS011;36332;51.384;0.040;2023-07-16T09:22:21;7.65;;;1.90;;
27706;SDS011;36332;51.384;0.040;2023-07-16T09:24:49;8.32;;;1.40;;
27706;SDS011;36332;51.384;0.040;2023-07-16T09:27:17;6.50;;;1.90;;
27706;SDS011;36332;51.384;0.040;2023-07-16T09:29:44;11.70;;;2.35;;
27706;SDS011;36332;51.384;0.040;2023-07-16T09:32:12;9.82;;;1.92;;
27706;SDS011;36332;51.384;0.040;2023-07-16T09:34:41;11.00;;;2.60;;
27706;SDS011;36332;51.384;0.040;2023-07-16T09:37:09;9.90;;;2.20;;
27706;SDS011;36332;51.384;0.040;2023-07-16T09:39:37;7.32;;;1.65;;
27706;SDS011;36332;51.384;0.040;2023-07-16T09:42:05;9.95;;;1.88;;
27706;SDS011;36332;51.384;0.040;2023-07-16T09:44:33;5.68;;;1.88;;
27706;SDS011;36332;51.384;0.040;2023-07-16T09:47:01;8.05;;;2.10;;
27706;SDS011;36332;51.384;0.040;2023-07-16T09:49:29;10.32;;;1.80;;
27706;SDS011;36332;51.384;0.040;2023-07-16T09:51:57;11.57;;;2.88;;
27706;SDS011;36332;51.384;0.040;2023-07-16T09:54:26;9.20;;;2.20;;
27706;SDS011;36332;51.384;0.040;2023-07-16T09:56:59;6.82;;;2.28;;
27706;SDS011;36332;51.384;0.040;2023-07-16T09:59:30;9.48;;;2.63;;
27706;SDS011;36332;51.384;0.040;2023-07-16T10:02:00;6.57;;;2.22;;
27706;SDS011;36332;51.384;0.040;2023-07-16T10:04:36;10.68;;;2.75;;
27706;SDS011;36332;51.384;0.040;2023-07-16T10:07:06;10.57;;;2.05;;
27706;SDS011;36332;51.384;0.040;2023-07-16T10:09:51;21.60;;;2.67;;
27706;SDS011;36332;51.384;0.040;2023-07-16T10:12:24;12.82;;;2.70;;
27706;SDS011;36332;51.384;0.040;2023-07-16T10:14:53;10.40;;;2.97;;
27706;SDS011;36332;51.384;0.040;2023-07-16T10:17:24;8.38;;;2.97;;
27706;SDS011;36332;51.384;0.040;2023-07-16T10:19:57;11.80;;;2.10;;
27706;SDS011;36332;51.384;0.040;2023-07-16T10:25:27;13.88;;;2.67;;
27706;SDS011;36332;51.384;0.040;2023-07-16T10:27:54;12.13;;;2.78;;
27706;SDS011;36332;51.384;0.040;2023-07-16T10:30:22;13.80;;;2.90;;
27706;SDS011;36332;51.384;0.040;2023-07-16T10:32:50;12.05;;;2.42;;
27706;SDS011;36332;51.384;0.040;2023-07-16T10:35:20;17.65;;;2.50;;
27706;SDS011;36332;51.384;0.040;2023-07-16T10:37:47;10.57;;;2.63;;
27706;SDS011;36332;51.384;0.040;2023-07-16T10:40:16;15.57;;;4.10;;
27706;SDS011;36332;51.384;0.040;2023-07-16T10:42:43;15.88;;;2.80;;
27706;SDS011;36332;51.384;0.040;2023-07-16T10:45:14;10.63;;;2.38;;
27706;SDS011;36332;51.384;0.040;2023-07-16T10:47:50;8.25;;;2.13;;
27706;SDS011;36332;51.384;0.040;2023-07-16T10:50:21;15.23;;;2.35;;
27706;SDS011;36332;51.384;0.040;2023-07-16T10:52:53;9.52;;;2.35;;
27706;SDS011;36332;51.384;0.040;2023-07-16T10:55:22;7.45;;;2.50;;
27706;SDS011;36332;51.384;0.040;2023-07-16T10:57:51;12.98;;;2.75;;
27706;SDS011;36332;51.384;0.040;2023-07-16T11:00:20;13.25;;;2.78;;
27706;SDS011;36332;51.384;0.040;2023-07-16T11:02:49;14.32;;;3.28;;
27706;SDS011;36332;51.384;0.040;2023-07-16T11:05:18;9.30;;;2.75;;
27706;SDS011;36332;51.384;0.040;2023-07-16T11:07:47;9.32;;;2.38;;
27706;SDS011;36332;51.384;0.040;2023-07-16T11:10:21;10.95;;;2.38;;
27706;SDS011;36332;51.384;0.040;2023-07-16T11:12:50;12.55;;;2.47;;
27706;SDS011;36332;51.384;0.040;2023-07-16T11:15:32;10.15;;;2.72;;
27706;SDS011;36332;51.384;0.040;2023-07-16T11:18:01;10.02;;;2.72;;
27706;SDS011;36332;51.384;0.040;2023-07-16T11:20:30;11.05;;;2.55;;
27706;SDS011;36332;51.384;0.040;2023-07-16T11:22:58;11.30;;;2.53;;
27706;SDS011;36332;51.384;0.040;2023-07-16T11:25:28;12.93;;;2.08;;
27706;SDS011;36332;51.384;0.040;2023-07-16T11:27:56;7.40;;;1.92;;
27706;SDS011;36332;51.384;0.040;2023-07-16T11:30:24;10.23;;;2.22;;
27706;SDS011;36332;51.384;0.040;2023-07-16T11:32:53;11.55;;;3.00;;
27706;SDS011;36332;51.384;0.040;2023-07-16T11:35:21;11.80;;;2.60;;
27706;SDS011;36332;51.384;0.040;2023-07-16T11:37:48;10.15;;;2.40;;
27706;SDS011;36332;51.384;0.040;2023-07-16T11:40:17;11.93;;;2.35;;
27706;SDS011;36332;51.384;0.040;2023-07-16T11:42:46;9.32;;;2.25;;
27706;SDS011;36332;51.384;0.040;2023-07-16T11:45:15;8.45;;;1.75;;
27706;SDS011;36332;51.384;0.040;2023-07-16T11:47:46;9.35;;;2.95;;
27706;SDS011;36332;51.384;0.040;2023-07-16T11:50:14;10.85;;;2.67;;
27706;SDS011;36332;51.384;0.040;2023-07-16T11:52:43;6.95;;;1.73;;
27706;SDS011;36332;51.384;0.040;2023-07-16T11:55:18;11.23;;;2.22;;
27706;SDS011;36332;51.384;0.040;2023-07-16T11:57:46;5.75;;;2.03;;
27706;SDS011;36332;51.384;0.040;2023-07-16T12:00:14;10.98;;;2.35;;
27706;SDS011;36332;51.384;0.040;2023-07-16T12:02:42;6.82;;;2.33;;
27706;SDS011;36332;51.384;0.040;2023-07-16T12:05:09;8.80;;;2.25;;
27706;SDS011;36332;51.384;0.040;2023-07-16T12:07:40;10.63;;;2.28;;
27706;SDS011;36332;51.384;0.040;2023-07-16T12:10:08;9.50;;;2.83;;
27706;SDS011;36332;51.384;0.040;2023-07-16T12:12:36;13.00;;;2.97;;
27706;SDS011;36332;51.384;0.040;2023-07-16T12:15:07;11.40;;;2.22;;
27706;SDS011;36332;51.384;0.040;2023-07-16T12:17:35;9.18;;;2.53;;
27706;SDS011;36332;51.384;0.040;2023-07-16T12:20:03;13.05;;;2.47;;
27706;SDS011;36332;51.384;0.040;2023-07-16T12:22:31;14.05;;;3.00;;
27706;SDS011;36332;51.384;0.040;2023-07-16T12:24:59;10.77;;;2.63;;
27706;SDS011;36332;51.384;0.040;2023-07-16T12:27:27;12.63;;;2.53;;
27706;SDS011;36332;51.384;0.040;2023-07-16T12:29:54;8.95;;;2.25;;
27706;SDS011;36332;51.384;0.040;2023-07-16T12:32:22;10.90;;;2.60;;
27706;SDS011;36332;51.384;0.040;2023-07-16T12:34:50;14.65;;;2.92;;
27706;SDS011;36332;51.384;0.040;2023-07-16T12:37:18;10.70;;;2.28;;
27706;SDS011;36332;51.384;0.040;2023-07-16T12:39:46;7.35;;;2.28;;
27706;SDS011;36332;51.384;0.040;2023-07-16T12:42:13;8.05;;;2.92;;
27706;SDS011;36332;51.384;0.040;2023-07-16T12:44:41;9.18;;;2.00;;
27706;SDS011;36332;51.384;0.040;2023-07-16T12:47:09;9.13;;;2.60;;
27706;SDS011;36332;51.384;0.040;2023-07-16T12:49:37;8.60;;;2.75;;
27706;SDS011;36332;51.384;0.040;2023-07-16T12:52:05;9.32;;;2.28;;
27706;SDS011;36332;51.384;0.040;2023-07-16T12:54:33;8.93;;;2.40;;
27706;SDS011;36332;51.384;0.040;2023-07-16T12:57:01;11.55;;;2.53;;
27706;SDS011;36332;51.384;0.040;2023-07-16T12:59:29;12.20;;;2.53;;
27706;SDS011;36332;51.384;0.040;2023-07-16T13:01:58;13.45;;;2.63;;
27706;SDS011;36332;51.384;0.040;2023-07-16T13:04:25;9.88;;;2.60;;
27706;SDS011;36332;51.384;0.040;2023-07-16T13:06:53;12.45;;;2.70;;
27706;SDS011;36332;51.384;0.040;2023-07-16T13:09:21;12.75;;;2.45;;
27706;SDS011;36332;51.384;0.040;2023-07-16T13:11:50;11.52;;;2.88;;
27706;SDS011;36332;51.384;0.040;2023-07-16T13:14:18;5.97;;;2.03;;
27706;SDS011;36332;51.384;0.040;2023-07-16T13:16:45;16.15;;;4.18;;
27706;SDS011;36332;51.384;0.040;2023-07-16T13:19:13;12.63;;;2.67;;
27706;SDS011;36332;51.384;0.040;2023-07-16T13:21:41;10.65;;;1.88;;
27706;SDS011;36332;51.384;0.040;2023-07-16T13:24:08;14.50;;;3.42;;
27706;SDS011;36332;51.384;0.040;2023-07-16T13:26:36;14.07;;;3.85;;
27706;SDS011;36332;51.384;0.040;2023-07-16T13:29:04;11.25;;;2.85;;
27706;SDS011;36332;51.384;0.040;2023-07-16T13:31:32;18.23;;;3.47;;
27706;SDS011;36332;51.384;0.040;2023-07-16T13:33:59;10.27;;;2.90;;
27706;SDS011;36332;51.384;0.040;2023-07-16T13:36:27;10.07;;;2.50;;
27706;SDS011;36332;51.384;0.040;2023-07-16T13:38:54;10.57;;;2.33;;
27706;SDS011;36332;51.384;0.040;2023-07-16T13:41:22;9.65;;;2.90;;
27706;SDS011;36332;51.384;0.040;2023-07-16T13:43:50;12.07;;;3.47;;
27706;SDS011;36332;51.384;0.040;2023-07-16T13:46:17;11.25;;;3.33;;
27706;SDS011;36332;51.384;0.040;2023-07-16T13:48:46;10.82;;;3.00;;
27706;SDS011;36332;51.384;0.040;2023-07-16T13:51:24;14.57;;;2.88;;
27706;SDS011;36332;51.384;0.040;2023-07-16T13:53:53;8.45;;;2.83;;
27706;SDS011;36332;51.384;0.040;2023-07-16T13:56:20;10.50;;;2.88;;
27706;SDS011;36332;51.384;0.040;2023-07-16T13:58:48;8.68;;;2.90;;
27706;SDS011;36332;51.384;0.040;2023-07-16T14:01:17;10.57;;;2.35;;
27706;SDS011;36332;51.384;0.040;2023-07-16T14:03:46;9.98;;;2.90;;
27706;SDS011;36332;51.384;0.040;2023-07-16T14:06:14;17.73;;;2.90;;
27706;SDS011;36332;51.384;0.040;2023-07-16T14:08:42;12.02;;;2.90;;
27706;SDS011;36332;51.384;0.040;2023-07-16T14:11:09;13.43;;;2.67;;
27706;SDS011;36332;51.384;0.040;2023-07-16T14:13:37;11.23;;;2.63;;
27706;SDS011;36332;51.384;0.040;2023-07-16T14:16:04;13.57;;;3.00;;
27706;SDS011;36332;51.384;0.040;2023-07-16T14:18:32;14.43;;;2.92;;
27706;SDS011;36332;51.384;0.040;2023-07-16T14:21:00;12.07;;;2.60;;
27706;SDS011;36332;51.384;0.040;2023-07-16T14:23:30;11.63;;;2.20;;
27706;SDS011;36332;51.384;0.040;2023-07-16T14:25:57;12.63;;;3.53;;
27706;SDS011;36332;51.384;0.040;2023-07-16T14:28:25;9.98;;;2.50;;
27706;SDS011;36332;51.384;0.040;2023-07-16T14:30:53;11.82;;;2.78;;
27706;SDS011;36332;51.384;0.040;2023-07-16T14:33:21;8.75;;;2.75;;
27706;SDS011;36332;51.384;0.040;2023-07-16T14:35:49;13.73;;;7.88;;
27706;SDS011;36332;51.384;0.040;2023-07-16T14:38:17;10.73;;;2.67;;
27706;SDS011;36332;51.384;0.040;2023-07-16T14:40:45;21.63;;;3.22;;
27706;SDS011;36332;51.384;0.040;2023-07-16T14:43:14;8.40;;;3.20;;
27706;SDS011;36332;51.384;0.040;2023-07-16T14:45:42;11.80;;;2.80;;
27706;SDS011;36332;51.384;0.040;2023-07-16T14:48:10;7.38;;;2.33;;
27706;SDS011;36332;51.384;0.040;2023-07-16T14:50:38;5.68;;;2.45;;
27706;SDS011;36332;51.384;0.040;2023-07-16T14:53:06;6.55;;;2.63;;